createdAt,value
2019-01-06T00:01:49.181Z,2.97
2019-01-06T00:04:37.184Z,3.47
2019-01-06T00:07:39.596Z,3.83
2019-01-06T00:10:35.234Z,3.07
2019-01-06T00:13:22.414Z,3.93
2019-01-06T00:16:09.928Z,3.47
2019-01-06T00:18:59.591Z,2.70
2019-01-06T00:21:47.203Z,4.03
2019-01-06T00:24:48.096Z,3.70
2019-01-06T00:27:42.878Z,5.20
2019-01-06T00:30:30.446Z,4.07
2019-01-06T00:33:25.287Z,3.83
2019-01-06T00:36:14.223Z,2.97
2019-01-06T00:38:53.744Z,3.57
2019-01-06T00:41:42.459Z,3.50
2019-01-06T00:44:37.273Z,3.63
2019-01-06T00:47:21.746Z,3.77
2019-01-06T00:50:22.381Z,3.70
2019-01-06T00:53:20.560Z,4.13
2019-01-06T00:56:05.415Z,3.03
2019-01-06T00:59:04.187Z,4.37
2019-01-06T01:01:59.025Z,3.27
2019-01-06T01:04:50.643Z,4.27
2019-01-06T01:07:48.597Z,3.67
2019-01-06T01:10:43.217Z,3.23
2019-01-06T01:13:30.360Z,3.33
2019-01-06T01:16:36.755Z,2.80
2019-01-06T01:19:28.279Z,3.57
2019-01-06T01:22:19.709Z,3.57
2019-01-06T01:25:07.039Z,3.23
2019-01-06T01:27:54.505Z,3.23
2019-01-06T01:30:49.307Z,3.27
2019-01-06T01:33:44.798Z,5.07
2019-01-06T01:36:51.831Z,2.73
2019-01-06T01:39:43.817Z,3.07
2019-01-06T01:42:32.557Z,2.80
2019-01-06T01:45:20.313Z,3.27
2019-01-06T01:48:24.368Z,2.67
2019-01-06T01:51:22.370Z,3.50
2019-01-06T01:54:23.268Z,2.57
2019-01-06T01:57:27.488Z,3.23
2019-01-06T02:00:14.862Z,3.33
2019-01-06T02:03:01.745Z,2.97
2019-01-06T02:05:49.474Z,1.87
2019-01-06T02:08:37.201Z,3.10
2019-01-06T02:11:20.778Z,3.20
2019-01-06T02:14:07.142Z,3.50
2019-01-06T02:17:10.646Z,2.43
2019-01-06T02:19:55.762Z,3.53
2019-01-06T02:22:59.408Z,2.33
2019-01-06T02:25:48.008Z,3.43
2019-01-06T02:28:31.544Z,3.00
2019-01-06T02:31:23.072Z,3.07
2019-01-06T02:34:11.545Z,2.63
2019-01-06T02:37:00.763Z,2.73
2019-01-06T02:39:49.475Z,2.60
2019-01-06T02:42:50.288Z,3.23
2019-01-06T02:45:31.355Z,2.60
2019-01-06T02:48:18.486Z,3.00
2019-01-06T02:51:25.513Z,3.20
2019-01-06T02:54:13.064Z,3.00
2019-01-06T02:56:59.938Z,2.80
2019-01-06T02:59:54.122Z,2.60
2019-01-06T03:02:48.628Z,2.60
2019-01-06T03:05:49.131Z,3.20
2019-01-06T03:08:47.004Z,2.53
2019-01-06T03:11:36.795Z,2.60
2019-01-06T03:14:28.510Z,2.03
2019-01-06T03:17:27.616Z,2.67
2019-01-06T03:20:15.320Z,2.50
2019-01-06T03:22:58.275Z,2.77
2019-01-06T03:25:50.073Z,3.13
2019-01-06T03:28:37.496Z,1.90
2019-01-06T03:31:38.701Z,2.40
2019-01-06T03:34:26.361Z,2.30
2019-01-06T03:37:26.108Z,2.70
2019-01-06T03:40:29.840Z,2.60
2019-01-06T03:43:17.033Z,2.90
2019-01-06T03:46:04.600Z,2.60
2019-01-06T03:48:51.876Z,2.43
2019-01-06T03:51:39.826Z,2.87
2019-01-06T03:54:28.603Z,2.60
2019-01-06T03:57:32.540Z,3.37
2019-01-06T04:00:21.587Z,3.73
2019-01-06T04:03:08.787Z,2.97
2019-01-06T04:06:09.325Z,2.73
2019-01-06T04:08:57.469Z,2.70
2019-01-06T04:11:52.251Z,2.57
2019-01-06T04:14:43.709Z,2.53
2019-01-06T04:17:31.163Z,2.90
2019-01-06T04:20:31.695Z,2.77
2019-01-06T04:23:38.838Z,3.87
2019-01-06T04:26:27.983Z,3.07
2019-01-06T04:29:15.198Z,2.70
2019-01-06T04:32:10.069Z,3.30
2019-01-06T04:34:58.242Z,2.63
2019-01-06T04:37:56.131Z,2.80
2019-01-06T04:40:43.440Z,2.83
2019-01-06T04:43:22.737Z,2.77
2019-01-06T04:46:17.314Z,4.07
2019-01-06T04:49:18.315Z,2.63
2019-01-06T04:52:05.541Z,2.67
2019-01-06T04:54:53.190Z,3.07
2019-01-06T04:57:40.739Z,3.37
2019-01-06T05:00:39.739Z,3.70
2019-01-06T05:03:34.368Z,3.40
2019-01-06T05:06:21.612Z,3.50
2019-01-06T05:09:08.801Z,2.63
2019-01-06T05:11:57.689Z,3.47
2019-01-06T05:14:49.156Z,3.27
2019-01-06T05:17:37.923Z,3.00
2019-01-06T05:20:26.794Z,3.87
2019-01-06T05:23:14.295Z,3.07
2019-01-06T05:26:11.712Z,3.43
2019-01-06T05:29:06.468Z,4.40
2019-01-06T05:31:55.220Z,3.10
2019-01-06T05:34:57.404Z,3.93
2019-01-06T05:37:49.075Z,2.83
2019-01-06T05:40:40.316Z,3.10
2019-01-06T05:43:37.654Z,3.93
2019-01-06T05:46:44.838Z,3.97
2019-01-06T05:49:39.436Z,3.70
2019-01-06T05:52:32.630Z,3.03
2019-01-06T05:55:20.073Z,3.93
2019-01-06T05:58:21.097Z,4.37
2019-01-06T06:01:12.658Z,3.50
2019-01-06T06:03:59.942Z,3.90
2019-01-06T06:06:45.410Z,3.50
2019-01-06T06:09:36.797Z,4.80
2019-01-06T06:12:23.954Z,3.23
2019-01-06T06:15:21.856Z,3.23
2019-01-06T06:18:10.478Z,3.43
2019-01-06T06:28:03.622Z,3.90
2019-01-06T06:30:46.915Z,4.33
2019-01-06T06:33:38.353Z,3.73
2019-01-06T06:36:25.407Z,3.73
2019-01-06T06:39:25.997Z,3.00
2019-01-06T06:42:14.318Z,3.80
2019-01-06T06:45:12.828Z,3.47
2019-01-06T06:48:13.328Z,3.43
2019-01-06T06:51:18.610Z,3.73
2019-01-06T06:54:13.471Z,3.43
2019-01-06T06:57:15.627Z,5.03
2019-01-06T07:00:50.049Z,4.27
2019-01-06T07:03:45.171Z,2.93
2019-01-06T07:06:32.849Z,4.23
2019-01-06T07:09:36.894Z,4.07
2019-01-06T07:12:24.141Z,3.37
2019-01-06T07:15:13.965Z,3.40
2019-01-06T07:18:05.689Z,3.53
2019-01-06T07:20:58.565Z,3.03
2019-01-06T07:23:46.065Z,3.90
2019-01-06T07:26:33.626Z,3.07
2019-01-06T07:29:34.364Z,3.97
2019-01-06T07:32:32.487Z,3.57
2019-01-06T07:35:19.534Z,4.30
2019-01-06T07:38:06.959Z,3.70
2019-01-06T07:41:08.101Z,2.97
2019-01-06T07:43:52.079Z,3.90
2019-01-06T07:46:43.754Z,3.43
2019-01-06T07:49:38.731Z,5.57
2019-01-06T07:52:20.334Z,4.93
2019-01-06T07:55:09.209Z,3.50
2019-01-06T07:58:03.545Z,4.13
2019-01-06T08:00:50.726Z,3.63
2019-01-06T08:03:38.036Z,3.73
2019-01-06T08:06:26.781Z,4.13
2019-01-06T08:09:12.910Z,4.20
2019-01-06T08:12:10.877Z,3.63
2019-01-06T08:15:02.288Z,5.77
2019-01-06T08:18:09.678Z,3.73
2019-01-06T08:20:56.832Z,4.43
2019-01-06T08:24:00.590Z,3.80
2019-01-06T08:27:03.443Z,5.63
2019-01-06T08:29:50.439Z,4.17
2019-01-06T08:32:44.973Z,3.93
2019-01-06T08:35:33.694Z,3.97
2019-01-06T08:38:28.116Z,3.53
2019-01-06T08:41:28.975Z,3.70
2019-01-06T08:44:32.376Z,4.07
2019-01-06T08:47:33.316Z,4.73
2019-01-06T08:50:40.694Z,4.17
2019-01-06T08:53:35.174Z,3.80
2019-01-06T08:56:19.328Z,4.20
2019-01-06T08:59:08.539Z,3.73
2019-01-06T09:01:48.942Z,3.20
2019-01-06T09:04:35.918Z,3.83
2019-01-06T09:07:36.774Z,4.60
2019-01-06T09:10:25.845Z,3.63
2019-01-06T09:13:26.251Z,3.53
2019-01-06T09:16:13.761Z,3.73
2019-01-06T09:19:02.544Z,4.10
2019-01-06T09:21:49.856Z,4.33
2019-01-06T09:24:42.105Z,3.83
2019-01-06T09:27:33.935Z,4.50
2019-01-06T09:30:21.899Z,4.70
2019-01-06T09:33:28.684Z,3.53
2019-01-06T09:36:19.654Z,3.63
2019-01-06T09:39:08.413Z,4.17
2019-01-06T09:41:59.880Z,4.43
2019-01-06T09:44:47.115Z,4.10
2019-01-06T09:47:30.897Z,4.87
2019-01-06T09:50:17.265Z,4.53
2019-01-06T09:53:04.391Z,4.00
2019-01-06T09:56:08.150Z,3.77
2019-01-06T09:58:55.507Z,3.67
2019-01-06T10:01:44.559Z,4.10
2019-01-06T10:04:35.189Z,4.00
2019-01-06T10:07:30.297Z,3.97
2019-01-06T10:10:17.593Z,3.63
2019-01-06T10:13:05.191Z,4.03
2019-01-06T10:16:02.876Z,3.53
2019-01-06T10:18:51.553Z,3.57
2019-01-06T10:21:39.097Z,4.10
2019-01-06T10:24:22.754Z,3.73
2019-01-06T10:27:17.298Z,3.70
2019-01-06T10:30:06.502Z,4.43
2019-01-06T10:32:48.108Z,4.23
2019-01-06T10:35:36.852Z,3.63
2019-01-06T10:38:25.974Z,3.83
2019-01-06T10:41:09.756Z,3.70
2019-01-06T10:43:58.438Z,4.23
2019-01-06T10:46:47.350Z,3.50
2019-01-06T10:49:38.565Z,3.83
2019-01-06T10:52:36.445Z,5.00
2019-01-06T10:55:27.907Z,5.60
2019-01-06T10:58:31.754Z,4.10
2019-01-06T11:01:30.325Z,5.60
2019-01-06T11:04:31.632Z,3.93
2019-01-06T11:07:18.780Z,3.37
2019-01-06T11:10:06.274Z,4.27
2019-01-06T11:13:07.187Z,3.73
2019-01-06T11:16:11.134Z,3.20
2019-01-06T11:19:02.999Z,3.97
2019-01-06T11:21:50.501Z,4.00
2019-01-06T11:24:46.882Z,3.10
2019-01-06T11:27:34.125Z,3.97
2019-01-06T11:30:22.239Z,3.47
2019-01-06T11:33:11.215Z,3.53
2019-01-06T11:35:58.752Z,3.93
2019-01-06T11:38:46.102Z,3.57
2019-01-06T11:41:40.857Z,3.87
2019-01-06T11:44:28.471Z,3.47
2019-01-06T11:47:16.006Z,3.63
2019-01-06T11:50:04.230Z,3.60
2019-01-06T11:52:51.755Z,3.80
2019-01-06T11:55:43.535Z,3.33
2019-01-06T11:58:31.828Z,3.63
2019-01-06T12:01:20.512Z,3.50
2019-01-06T12:04:07.895Z,3.23
2019-01-06T12:07:13.667Z,3.53
2019-01-06T12:09:56.389Z,3.40
2019-01-06T12:12:43.645Z,3.30
2019-01-06T12:15:43.442Z,3.80
2019-01-06T12:18:36.735Z,4.13
2019-01-06T12:21:24.690Z,3.67
2019-01-06T12:24:16.179Z,3.77
2019-01-06T12:27:14.132Z,7.87
2019-01-06T12:30:01.714Z,3.13
2019-01-06T12:33:05.805Z,2.93
2019-01-06T12:35:52.885Z,2.63
2019-01-06T12:38:56.670Z,2.50
2019-01-06T12:41:44.231Z,3.27
2019-01-06T12:44:44.897Z,3.80
2019-01-06T12:47:32.021Z,4.00
2019-01-06T12:50:29.957Z,3.07
2019-01-06T12:53:27.631Z,3.00
2019-01-06T12:56:15.239Z,2.33
2019-01-06T12:59:02.981Z,3.23
2019-01-06T13:01:50.101Z,3.10
2019-01-06T13:04:50.689Z,2.90
2019-01-06T13:07:32.266Z,2.77
2019-01-06T13:10:19.615Z,3.57
2019-01-06T13:13:06.753Z,3.60
2019-01-06T13:15:57.817Z,2.80
2019-01-06T13:18:48.336Z,4.50
2019-01-06T13:21:57.741Z,3.73
2019-01-06T13:24:48.919Z,3.13
2019-01-06T13:27:43.848Z,4.23
2019-01-06T13:30:30.928Z,4.17
2019-01-06T13:33:22.015Z,5.30
2019-01-06T13:36:10.048Z,4.50
2019-01-06T13:38:57.087Z,4.37
2019-01-06T13:42:05.277Z,3.03
2019-01-06T13:44:54.310Z,4.50
2019-01-06T13:47:41.553Z,4.27
2019-01-06T13:50:36.552Z,3.43
2019-01-06T13:53:32.924Z,4.60
2019-01-06T13:56:20.185Z,4.43
2019-01-06T13:59:07.332Z,4.43
2019-01-06T14:01:54.685Z,3.47
2019-01-06T14:04:50.582Z,3.50
2019-01-06T14:07:39.843Z,4.53
2019-01-06T14:10:28.502Z,3.90
2019-01-06T14:13:27.959Z,3.87
2019-01-06T14:16:17.791Z,3.83
2019-01-06T14:19:12.523Z,3.90
2019-01-06T14:22:05.238Z,4.10
2019-01-06T14:25:12.487Z,4.73
2019-01-06T14:28:03.531Z,3.80
2019-01-06T14:30:53.128Z,3.87
2019-01-06T14:33:41.557Z,4.27
2019-01-06T14:36:34.558Z,3.70
2019-01-06T14:39:26.672Z,4.33
2019-01-06T14:42:13.566Z,4.53
2019-01-06T14:45:00.606Z,5.17
2019-01-06T14:47:47.849Z,5.47
2019-01-06T14:50:34.891Z,4.90
2019-01-06T14:53:22.279Z,5.37
2019-01-06T14:56:09.468Z,4.63
2019-01-06T14:58:57.553Z,4.50
2019-01-06T15:01:44.817Z,4.73
2019-01-06T15:04:46.055Z,5.63
2019-01-06T15:07:33.893Z,5.20
2019-01-06T15:10:29.109Z,5.33
2019-01-06T15:13:20.587Z,5.53
2019-01-06T15:16:21.633Z,4.63
2019-01-06T15:19:09.049Z,4.80
2019-01-06T15:22:01.225Z,4.60
2019-01-06T15:25:00.575Z,4.47
2019-01-06T15:28:04.507Z,5.70
2019-01-06T15:31:04.775Z,5.93
2019-01-06T15:33:45.743Z,5.30
2019-01-06T15:36:33.293Z,6.10
2019-01-06T15:39:20.467Z,5.53
2019-01-06T15:42:14.834Z,5.77
2019-01-06T15:45:21.701Z,6.70
2019-01-06T15:48:10.182Z,8.37
2019-01-06T15:50:57.167Z,6.50
2019-01-06T15:53:44.431Z,6.20
2019-01-06T15:56:31.663Z,6.70
2019-01-06T15:59:18.957Z,5.57
2019-01-06T16:02:17.122Z,6.63
2019-01-06T16:05:24.182Z,6.93
2019-01-06T16:08:15.600Z,5.97
2019-01-06T16:11:22.222Z,6.00
2019-01-06T16:14:23.420Z,6.03
2019-01-06T16:17:15.023Z,5.83
2019-01-06T16:20:01.881Z,9.00
2019-01-06T16:22:48.999Z,5.23
2019-01-06T16:25:37.564Z,7.93
2019-01-06T16:28:21.314Z,7.33
2019-01-06T16:31:10.642Z,6.57
2019-01-06T16:34:05.532Z,7.53
2019-01-06T16:37:01.143Z,7.37
2019-01-06T16:39:48.241Z,6.93
2019-01-06T16:42:47.362Z,6.97
2019-01-06T16:45:45.543Z,6.37
2019-01-06T16:48:46.192Z,6.97
2019-01-06T16:51:40.653Z,6.00
2019-01-06T16:54:27.755Z,7.30
2019-01-06T16:57:32.603Z,8.37
2019-01-06T17:00:35.028Z,7.27
2019-01-06T17:03:36.794Z,8.03
2019-01-06T17:06:24.290Z,7.83
2019-01-06T17:09:12.022Z,12.73
2019-01-06T17:12:16.208Z,15.60
2019-01-06T17:15:16.771Z,11.50
2019-01-06T17:18:11.672Z,10.73
2019-01-06T17:20:58.842Z,9.80
2019-01-06T17:23:47.386Z,9.73
2019-01-06T17:26:36.020Z,9.30
2019-01-06T17:29:24.721Z,11.40
2019-01-06T17:32:22.405Z,8.43
2019-01-06T17:35:20.609Z,6.90
2019-01-06T17:38:05.506Z,6.73
2019-01-06T17:40:57.072Z,6.03
2019-01-06T17:43:44.460Z,7.40
2019-01-06T17:46:33.234Z,7.87
2019-01-06T17:49:22.203Z,6.00
2019-01-06T17:52:22.764Z,6.77
2019-01-06T17:55:11.461Z,3.83
2019-01-06T17:58:08.885Z,4.53
2019-01-06T18:00:59.598Z,6.62
2019-01-06T18:03:46.531Z,5.33
2019-01-06T18:06:41.254Z,5.50
2019-01-06T18:09:40.085Z,6.10
2019-01-06T18:12:43.380Z,8.23
2019-01-06T18:15:31.284Z,6.17
2019-01-06T18:18:23.694Z,7.07
2019-01-06T18:21:11.081Z,7.13
2019-01-06T18:23:58.011Z,5.77
2019-01-06T18:26:45.533Z,5.50
2019-01-06T18:29:33.977Z,5.93
2019-01-06T18:32:18.543Z,8.00
2019-01-06T18:35:02.988Z,8.17
2019-01-06T18:37:50.537Z,8.27
2019-01-06T18:40:39.532Z,6.20
2019-01-06T18:43:26.870Z,8.53
2019-01-06T18:46:30.693Z,9.93
2019-01-06T18:49:18.601Z,11.33
2019-01-06T18:52:10.224Z,7.17
2019-01-06T18:55:10.936Z,9.07
2019-01-06T18:58:15.209Z,10.03
2019-01-06T19:01:07.387Z,8.73
2019-01-06T19:03:56.528Z,9.97
2019-01-06T19:06:42.408Z,9.40
2019-01-06T19:09:31.402Z,9.57
2019-01-06T19:12:20.401Z,10.50
2019-01-06T19:15:13.184Z,11.53
2019-01-06T19:18:02.509Z,9.47
2019-01-06T19:21:10.125Z,10.37
2019-01-06T19:23:57.538Z,10.73
2019-01-06T19:26:55.368Z,10.67
2019-01-06T19:29:53.487Z,10.40
2019-01-06T19:32:43.562Z,11.07
2019-01-06T19:35:36.630Z,12.60
2019-01-06T19:38:28.535Z,11.50
2019-01-06T19:41:26.520Z,10.07
2019-01-06T19:44:19.916Z,10.53
2019-01-06T19:47:21.204Z,10.27
2019-01-06T19:50:08.881Z,9.47
2019-01-06T19:53:03.663Z,11.30
2019-01-06T19:55:52.659Z,11.60
2019-01-06T19:58:40.323Z,10.50
2019-01-06T20:01:39.935Z,12.23
2019-01-06T20:04:27.537Z,13.80
2019-01-06T20:07:19.745Z,11.83
2019-01-06T20:10:07.385Z,11.03
2019-01-06T20:13:04.143Z,13.90
2019-01-06T20:16:11.002Z,14.40
2019-01-06T20:19:01.418Z,9.60
2019-01-06T20:22:05.456Z,10.67
2019-01-06T20:24:56.900Z,11.50
2019-01-06T20:27:45.885Z,11.27
2019-01-06T20:30:33.628Z,14.27
2019-01-06T20:33:22.450Z,12.17
2019-01-06T20:36:09.802Z,12.73
2019-01-06T20:38:57.031Z,10.00
2019-01-06T20:41:45.673Z,14.17
2019-01-06T20:44:33.033Z,12.97
2019-01-06T20:47:19.945Z,12.70
2019-01-06T20:50:14.770Z,14.57
2019-01-06T20:53:02.409Z,12.70
2019-01-06T20:55:53.944Z,14.10
2019-01-06T20:58:55.483Z,11.50
2019-01-06T21:01:46.035Z,8.37
2019-01-06T21:04:37.962Z,10.33
2019-01-06T21:07:18.918Z,11.13
2019-01-06T21:10:08.872Z,10.90
2019-01-06T21:12:56.547Z,12.67
2019-01-06T21:15:44.926Z,13.87
2019-01-06T21:18:40.246Z,14.18
2019-01-06T21:21:21.585Z,12.43
2019-01-06T21:24:08.872Z,13.20
2019-01-06T21:26:53.013Z,9.00
2019-01-06T21:29:41.770Z,13.87
2019-01-06T21:32:41.055Z,13.47
2019-01-06T21:35:32.476Z,11.70
2019-01-06T21:38:15.707Z,11.07
2019-01-06T21:41:17.097Z,12.77
2019-01-06T21:44:17.935Z,11.73
2019-01-06T21:47:09.183Z,9.30
2019-01-06T21:50:08.013Z,12.30
2019-01-06T21:52:57.838Z,13.80
2019-01-06T21:55:45.185Z,11.50
2019-01-06T21:58:32.959Z,12.47
2019-01-06T22:01:22.094Z,10.70
2019-01-06T22:04:03.504Z,10.90
2019-01-06T22:06:51.168Z,15.67
2019-01-06T22:09:47.307Z,12.53
2019-01-06T22:12:47.939Z,14.30
2019-01-06T22:15:35.471Z,14.07
2019-01-06T22:18:24.708Z,10.87
2019-01-06T22:21:12.828Z,8.80
2019-01-06T22:24:07.560Z,13.53
2019-01-06T22:26:54.958Z,11.70
2019-01-06T22:29:42.560Z,14.30
2019-01-06T22:32:46.617Z,11.70
2019-01-06T22:35:33.884Z,14.43
2019-01-06T22:38:37.947Z,14.73
2019-01-06T22:41:45.002Z,10.93
2019-01-06T22:44:52.430Z,11.87
2019-01-06T22:47:56.124Z,10.40
2019-01-06T22:50:43.612Z,9.63
2019-01-06T22:53:44.181Z,13.87
2019-01-06T22:56:29.947Z,8.87
2019-01-06T22:59:34.088Z,11.07
2019-01-06T23:02:37.887Z,12.77
2019-01-06T23:05:29.212Z,14.70
2019-01-06T23:08:07.452Z,11.93
2019-01-06T23:11:01.902Z,7.70
2019-01-06T23:13:58.002Z,10.27
2019-01-06T23:16:45.716Z,10.07
2019-01-06T23:19:40.516Z,10.33
2019-01-06T23:22:32.119Z,10.17
2019-01-06T23:25:19.399Z,9.80
2019-01-06T23:28:13.966Z,7.93
2019-01-06T23:31:11.522Z,13.07
2019-01-06T23:34:15.240Z,10.00
2019-01-06T23:37:02.566Z,12.83
2019-01-06T23:39:51.508Z,13.87
2019-01-06T23:42:46.349Z,13.47
2019-01-06T23:45:33.864Z,9.47
2019-01-06T23:48:31.464Z,11.07
2019-01-06T23:51:18.560Z,8.13
2019-01-06T23:54:22.111Z,8.67
2019-01-06T23:57:07.881Z,12.60
